sensor_id;sensor_type;location;lat;lon;timestamp;P1;durP1;ratioP1;P2;durP2;ratioP2
39788;SDS011;25478;42.626;23.320;2022-07-23T00:00:34;7.97;;;5.00;;
39788;SDS011;25478;42.626;23.320;2022-07-23T00:02:59;8.95;;;4.90;;
39788;SDS011;25478;42.626;23.320;2022-07-23T00:05:25;10.68;;;5.13;;
39788;SDS011;25478;42.626;23.320;2022-07-23T00:07:50;9.10;;;4.78;;
39788;SDS011;25478;42.626;23.320;2022-07-23T00:10:16;12.05;;;5.25;;
39788;SDS011;25478;42.626;23.320;2022-07-23T00:12:42;8.20;;;5.10;;
39788;SDS011;25478;42.626;23.320;2022-07-23T00:15:08;8.82;;;4.53;;
39788;SDS011;25478;42.626;23.320;2022-07-23T00:17:34;8.15;;;4.88;;
39788;SDS011;25478;42.626;23.320;2022-07-23T00:20:00;9.73;;;5.05;;
39788;SDS011;25478;42.626;23.320;2022-07-23T00:22:26;7.85;;;4.72;;
39788;SDS011;25478;42.626;23.320;2022-07-23T00:24:52;9.13;;;4.93;;
39788;SDS011;25478;42.626;23.320;2022-07-23T00:27:18;7.88;;;4.85;;
39788;SDS011;25478;42.626;23.320;2022-07-23T00:29:43;8.63;;;4.68;;
39788;SDS011;25478;42.626;23.320;2022-07-23T00:32:09;7.30;;;5.05;;
39788;SDS011;25478;42.626;23.320;2022-07-23T00:34:35;11.90;;;5.18;;
39788;SDS011;25478;42.626;23.320;2022-07-23T00:37:01;8.98;;;5.00;;
39788;SDS011;25478;42.626;23.320;2022-07-23T00:39:26;10.82;;;5.57;;
39788;SDS011;25478;42.626;23.320;2022-07-23T00:41:52;10.40;;;5.25;;
39788;SDS011;25478;42.626;23.320;2022-07-23T00:44:21;8.95;;;5.15;;
39788;SDS011;25478;42.626;23.320;2022-07-23T00:46:55;8.55;;;5.45;;
39788;SDS011;25478;42.626;23.320;2022-07-23T00:49:26;8.98;;;5.10;;
39788;SDS011;25478;42.626;23.320;2022-07-23T00:51:53;9.30;;;5.22;;
39788;SDS011;25478;42.626;23.320;2022-07-23T00:54:21;9.68;;;5.28;;
39788;SDS011;25478;42.626;23.320;2022-07-23T00:56:48;8.77;;;4.72;;
39788;SDS011;25478;42.626;23.320;2022-07-23T00:59:14;9.27;;;5.15;;
39788;SDS011;25478;42.626;23.320;2022-07-23T01:01:40;10.27;;;5.97;;
39788;SDS011;25478;42.626;23.320;2022-07-23T01:04:06;8.75;;;5.10;;
39788;SDS011;25478;42.626;23.320;2022-07-23T01:06:36;8.40;;;5.10;;
39788;SDS011;25478;42.626;23.320;2022-07-23T01:09:03;8.98;;;5.78;;
39788;SDS011;25478;42.626;23.320;2022-07-23T01:11:30;9.77;;;5.22;;
39788;SDS011;25478;42.626;23.320;2022-07-23T01:13:57;13.90;;;6.47;;
39788;SDS011;25478;42.626;23.320;2022-07-23T01:16:23;9.35;;;5.07;;
39788;SDS011;25478;42.626;23.320;2022-07-23T01:18:48;8.77;;;5.30;;
39788;SDS011;25478;42.626;23.320;2022-07-23T01:21:14;9.30;;;5.25;;
39788;SDS011;25478;42.626;23.320;2022-07-23T01:23:43;10.45;;;5.53;;
39788;SDS011;25478;42.626;23.320;2022-07-23T01:26:09;9.63;;;5.53;;
39788;SDS011;25478;42.626;23.320;2022-07-23T01:28:35;9.13;;;5.25;;
39788;SDS011;25478;42.626;23.320;2022-07-23T01:31:01;10.45;;;5.38;;
39788;SDS011;25478;42.626;23.320;2022-07-23T01:33:31;9.48;;;5.55;;
39788;SDS011;25478;42.626;23.320;2022-07-23T01:35:57;10.07;;;5.25;;
39788;SDS011;25478;42.626;23.320;2022-07-23T01:38:24;9.80;;;5.82;;
39788;SDS011;25478;42.626;23.320;2022-07-23T01:40:49;9.25;;;5.63;;
39788;SDS011;25478;42.626;23.320;2022-07-23T01:43:15;11.15;;;5.63;;
39788;SDS011;25478;42.626;23.320;2022-07-23T01:45:40;12.00;;;6.13;;
39788;SDS011;25478;42.626;23.320;2022-07-23T01:48:08;10.45;;;5.38;;
39788;SDS011;25478;42.626;23.320;2022-07-23T01:50:33;11.68;;;6.10;;
39788;SDS011;25478;42.626;23.320;2022-07-23T01:53:02;10.15;;;5.70;;
39788;SDS011;25478;42.626;23.320;2022-07-23T01:55:27;9.70;;;6.18;;
39788;SDS011;25478;42.626;23.320;2022-07-23T01:57:53;10.90;;;6.00;;
39788;SDS011;25478;42.626;23.320;2022-07-23T02:00:21;10.20;;;5.85;;
39788;SDS011;25478;42.626;23.320;2022-07-23T02:02:50;10.48;;;5.80;;
39788;SDS011;25478;42.626;23.320;2022-07-23T02:05:15;9.27;;;5.70;;
39788;SDS011;25478;42.626;23.320;2022-07-23T02:07:41;10.27;;;5.80;;
39788;SDS011;25478;42.626;23.320;2022-07-23T02:10:07;10.55;;;5.38;;
39788;SDS011;25478;42.626;23.320;2022-07-23T02:12:33;8.32;;;5.40;;
39788;SDS011;25478;42.626;23.320;2022-07-23T02:14:59;10.88;;;5.30;;
39788;SDS011;25478;42.626;23.320;2022-07-23T02:17:24;9.30;;;5.68;;
39788;SDS011;25478;42.626;23.320;2022-07-23T02:19:50;11.80;;;5.57;;
39788;SDS011;25478;42.626;23.320;2022-07-23T02:22:16;10.80;;;5.63;;
39788;SDS011;25478;42.626;23.320;2022-07-23T02:24:41;9.00;;;5.20;;
39788;SDS011;25478;42.626;23.320;2022-07-23T02:27:06;7.72;;;5.15;;
39788;SDS011;25478;42.626;23.320;2022-07-23T02:29:33;10.38;;;5.18;;
39788;SDS011;25478;42.626;23.320;2022-07-23T02:31:59;9.90;;;5.50;;
39788;SDS011;25478;42.626;23.320;2022-07-23T02:34:24;11.15;;;5.50;;
39788;SDS011;25478;42.626;23.320;2022-07-23T02:36:50;10.00;;;5.38;;
39788;SDS011;25478;42.626;23.320;2022-07-23T02:39:15;10.20;;;5.40;;
39788;SDS011;25478;42.626;23.320;2022-07-23T02:41:41;9.30;;;5.00;;
39788;SDS011;25478;42.626;23.320;2022-07-23T02:44:07;7.70;;;5.28;;
39788;SDS011;25478;42.626;23.320;2022-07-23T02:46:33;8.80;;;5.10;;
39788;SDS011;25478;42.626;23.320;2022-07-23T02:48:59;12.60;;;5.32;;
39788;SDS011;25478;42.626;23.320;2022-07-23T02:51:24;7.95;;;5.05;;
39788;SDS011;25478;42.626;23.320;2022-07-23T02:53:55;8.70;;;5.03;;
39788;SDS011;25478;42.626;23.320;2022-07-23T02:56:20;11.98;;;5.18;;
39788;SDS011;25478;42.626;23.320;2022-07-23T02:58:46;8.23;;;5.18;;
39788;SDS011;25478;42.626;23.320;2022-07-23T03:01:12;8.52;;;4.93;;
39788;SDS011;25478;42.626;23.320;2022-07-23T03:03:38;8.75;;;5.28;;
39788;SDS011;25478;42.626;23.320;2022-07-23T03:06:04;9.20;;;4.90;;
39788;SDS011;25478;42.626;23.320;2022-07-23T03:08:29;10.45;;;5.15;;
39788;SDS011;25478;42.626;23.320;2022-07-23T03:10:55;9.82;;;5.43;;
39788;SDS011;25478;42.626;23.320;2022-07-23T03:13:21;8.43;;;5.03;;
39788;SDS011;25478;42.626;23.320;2022-07-23T03:15:46;7.90;;;5.57;;
39788;SDS011;25478;42.626;23.320;2022-07-23T03:18:12;9.48;;;5.15;;
39788;SDS011;25478;42.626;23.320;2022-07-23T03:20:38;8.88;;;5.40;;
39788;SDS011;25478;42.626;23.320;2022-07-23T03:23:03;9.95;;;5.38;;
39788;SDS011;25478;42.626;23.320;2022-07-23T03:25:30;9.93;;;5.78;;
39788;SDS011;25478;42.626;23.320;2022-07-23T03:27:56;7.97;;;4.97;;
39788;SDS011;25478;42.626;23.320;2022-07-23T03:30:21;8.98;;;5.35;;
39788;SDS011;25478;42.626;23.320;2022-07-23T03:32:47;11.20;;;5.43;;
39788;SDS011;25478;42.626;23.320;2022-07-23T03:35:13;11.30;;;5.70;;
39788;SDS011;25478;42.626;23.320;2022-07-23T03:40:12;10.45;;;5.60;;
39788;SDS011;25478;42.626;23.320;2022-07-23T03:42:38;9.63;;;5.80;;
39788;SDS011;25478;42.626;23.320;2022-07-23T03:45:06;7.53;;;5.20;;
39788;SDS011;25478;42.626;23.320;2022-07-23T03:47:32;9.23;;;5.57;;
39788;SDS011;25478;42.626;23.320;2022-07-23T03:49:57;8.68;;;5.47;;
39788;SDS011;25478;42.626;23.320;2022-07-23T03:52:23;12.30;;;6.00;;
39788;SDS011;25478;42.626;23.320;2022-07-23T03:54:50;9.68;;;5.80;;
39788;SDS011;25478;42.626;23.320;2022-07-23T03:57:16;8.77;;;5.30;;
39788;SDS011;25478;42.626;23.320;2022-07-23T03:59:41;10.75;;;6.00;;
39788;SDS011;25478;42.626;23.320;2022-07-23T04:02:07;10.07;;;7.05;;
39788;SDS011;25478;42.626;23.320;2022-07-23T04:04:33;10.65;;;6.65;;
39788;SDS011;25478;42.626;23.320;2022-07-23T04:06:59;12.00;;;6.32;;
39788;SDS011;25478;42.626;23.320;2022-07-23T04:09:26;9.88;;;6.10;;
39788;SDS011;25478;42.626;23.320;2022-07-23T04:11:52;12.77;;;6.65;;
39788;SDS011;25478;42.626;23.320;2022-07-23T04:14:18;9.32;;;6.13;;
39788;SDS011;25478;42.626;23.320;2022-07-23T04:16:45;11.38;;;6.53;;
39788;SDS011;25478;42.626;23.320;2022-07-23T04:19:10;10.07;;;6.72;;
39788;SDS011;25478;42.626;23.320;2022-07-23T04:21:48;15.38;;;7.18;;
39788;SDS011;25478;42.626;23.320;2022-07-23T04:24:14;12.15;;;7.88;;
39788;SDS011;25478;42.626;23.320;2022-07-23T04:26:39;11.85;;;7.35;;
39788;SDS011;25478;42.626;23.320;2022-07-23T04:29:05;15.98;;;8.85;;
39788;SDS011;25478;42.626;23.320;2022-07-23T04:31:30;14.88;;;8.43;;
39788;SDS011;25478;42.626;23.320;2022-07-23T04:33:56;11.45;;;8.07;;
39788;SDS011;25478;42.626;23.320;2022-07-23T04:36:22;13.35;;;9.00;;
39788;SDS011;25478;42.626;23.320;2022-07-23T04:38:47;12.32;;;8.30;;
39788;SDS011;25478;42.626;23.320;2022-07-23T04:41:13;13.48;;;7.93;;
39788;SDS011;25478;42.626;23.320;2022-07-23T04:43:39;13.35;;;8.10;;
39788;SDS011;25478;42.626;23.320;2022-07-23T04:46:04;12.02;;;8.48;;
39788;SDS011;25478;42.626;23.320;2022-07-23T04:48:37;12.05;;;8.63;;
39788;SDS011;25478;42.626;23.320;2022-07-23T04:51:08;12.10;;;8.45;;
39788;SDS011;25478;42.626;23.320;2022-07-23T04:53:36;13.02;;;8.35;;
39788;SDS011;25478;42.626;23.320;2022-07-23T04:56:02;12.75;;;8.88;;
39788;SDS011;25478;42.626;23.320;2022-07-23T04:58:29;11.18;;;8.90;;
39788;SDS011;25478;42.626;23.320;2022-07-23T05:00:55;12.60;;;8.80;;
39788;SDS011;25478;42.626;23.320;2022-07-23T05:03:23;13.05;;;8.70;;
39788;SDS011;25478;42.626;23.320;2022-07-23T05:05:48;14.18;;;8.93;;
39788;SDS011;25478;42.626;23.320;2022-07-23T05:08:16;15.18;;;9.80;;
39788;SDS011;25478;42.626;23.320;2022-07-23T05:10:44;15.20;;;8.68;;
39788;SDS011;25478;42.626;23.320;2022-07-23T05:13:09;12.02;;;9.23;;
39788;SDS011;25478;42.626;23.320;2022-07-23T05:15:35;16.55;;;9.38;;
39788;SDS011;25478;42.626;23.320;2022-07-23T05:18:01;13.85;;;8.35;;
39788;SDS011;25478;42.626;23.320;2022-07-23T05:20:27;11.75;;;8.25;;
39788;SDS011;25478;42.626;23.320;2022-07-23T05:22:53;12.57;;;8.02;;
39788;SDS011;25478;42.626;23.320;2022-07-23T05:25:18;13.65;;;8.43;;
39788;SDS011;25478;42.626;23.320;2022-07-23T05:27:44;12.98;;;7.57;;
39788;SDS011;25478;42.626;23.320;2022-07-23T05:30:09;11.63;;;7.88;;
39788;SDS011;25478;42.626;23.320;2022-07-23T05:32:36;13.60;;;7.55;;
39788;SDS011;25478;42.626;23.320;2022-07-23T05:37:39;14.82;;;7.85;;
39788;SDS011;25478;42.626;23.320;2022-07-23T05:40:05;12.80;;;8.00;;
39788;SDS011;25478;42.626;23.320;2022-07-23T05:42:33;11.85;;;7.43;;
39788;SDS011;25478;42.626;23.320;2022-07-23T05:44:59;12.10;;;7.68;;
39788;SDS011;25478;42.626;23.320;2022-07-23T05:47:27;14.98;;;7.40;;
39788;SDS011;25478;42.626;23.320;2022-07-23T05:49:53;13.35;;;6.90;;
39788;SDS011;25478;42.626;23.320;2022-07-23T05:52:32;11.95;;;6.72;;
39788;SDS011;25478;42.626;23.320;2022-07-23T05:55:26;11.38;;;6.93;;
39788;SDS011;25478;42.626;23.320;2022-07-23T05:57:55;13.45;;;7.28;;
39788;SDS011;25478;42.626;23.320;2022-07-23T06:00:21;15.68;;;7.60;;
39788;SDS011;25478;42.626;23.320;2022-07-23T06:02:47;11.70;;;7.32;;
39788;SDS011;25478;42.626;23.320;2022-07-23T06:05:15;9.48;;;6.65;;
39788;SDS011;25478;42.626;23.320;2022-07-23T06:07:40;11.23;;;7.65;;
39788;SDS011;25478;42.626;23.320;2022-07-23T06:10:06;16.55;;;7.90;;
39788;SDS011;25478;42.626;23.320;2022-07-23T06:12:33;14.95;;;7.30;;
39788;SDS011;25478;42.626;23.320;2022-07-23T06:14:58;16.95;;;7.22;;
39788;SDS011;25478;42.626;23.320;2022-07-23T06:17:25;12.70;;;7.18;;
39788;SDS011;25478;42.626;23.320;2022-07-23T06:19:52;11.88;;;6.95;;
39788;SDS011;25478;42.626;23.320;2022-07-23T06:22:18;13.30;;;6.57;;
39788;SDS011;25478;42.626;23.320;2022-07-23T06:24:45;12.20;;;6.55;;
39788;SDS011;25478;42.626;23.320;2022-07-23T06:27:10;10.55;;;6.20;;
39788;SDS011;25478;42.626;23.320;2022-07-23T06:29:36;9.48;;;6.70;;
39788;SDS011;25478;42.626;23.320;2022-07-23T06:32:01;14.00;;;6.47;;
39788;SDS011;25478;42.626;23.320;2022-07-23T06:34:27;12.13;;;6.63;;
39788;SDS011;25478;42.626;23.320;2022-07-23T06:36:54;9.55;;;6.63;;
39788;SDS011;25478;42.626;23.320;2022-07-23T06:39:20;13.30;;;7.57;;
39788;SDS011;25478;42.626;23.320;2022-07-23T06:41:47;12.07;;;7.38;;
39788;SDS011;25478;42.626;23.320;2022-07-23T06:44:12;12.75;;;7.05;;
39788;SDS011;25478;42.626;23.320;2022-07-23T06:46:40;12.75;;;7.15;;
39788;SDS011;25478;42.626;23.320;2022-07-23T06:49:06;16.48;;;7.88;;
39788;SDS011;25478;42.626;23.320;2022-07-23T06:51:31;17.25;;;7.50;;
39788;SDS011;25478;42.626;23.320;2022-07-23T06:53:58;10.35;;;7.25;;
39788;SDS011;25478;42.626;23.320;2022-07-23T06:56:25;10.23;;;7.25;;
39788;SDS011;25478;42.626;23.320;2022-07-23T06:58:51;14.90;;;7.78;;
39788;SDS011;25478;42.626;23.320;2022-07-23T07:01:17;14.10;;;7.60;;
39788;SDS011;25478;42.626;23.320;2022-07-23T07:03:43;12.07;;;6.70;;
39788;SDS011;25478;42.626;23.320;2022-07-23T07:06:08;13.80;;;8.00;;
39788;SDS011;25478;42.626;23.320;2022-07-23T07:08:34;11.20;;;7.63;;
39788;SDS011;25478;42.626;23.320;2022-07-23T07:11:00;13.75;;;7.85;;
39788;SDS011;25478;42.626;23.320;2022-07-23T07:13:25;16.80;;;7.47;;
39788;SDS011;25478;42.626;23.320;2022-07-23T07:15:51;16.20;;;8.23;;
39788;SDS011;25478;42.626;23.320;2022-07-23T07:18:16;14.50;;;8.23;;
39788;SDS011;25478;42.626;23.320;2022-07-23T07:20:42;11.73;;;6.65;;
39788;SDS011;25478;42.626;23.320;2022-07-23T07:23:07;11.50;;;7.82;;
39788;SDS011;25478;42.626;23.320;2022-07-23T07:25:33;11.60;;;7.38;;
39788;SDS011;25478;42.626;23.320;2022-07-23T07:27:59;12.52;;;7.50;;
39788;SDS011;25478;42.626;23.320;2022-07-23T07:30:24;12.23;;;7.78;;
39788;SDS011;25478;42.626;23.320;2022-07-23T07:32:50;13.68;;;7.15;;
39788;SDS011;25478;42.626;23.320;2022-07-23T07:35:16;12.13;;;7.25;;
39788;SDS011;25478;42.626;23.320;2022-07-23T07:37:42;13.75;;;7.60;;
39788;SDS011;25478;42.626;23.320;2022-07-23T07:40:07;12.02;;;7.97;;
39788;SDS011;25478;42.626;23.320;2022-07-23T07:42:33;11.63;;;7.68;;
39788;SDS011;25478;42.626;23.320;2022-07-23T07:44:59;13.48;;;7.93;;
39788;SDS011;25478;42.626;23.320;2022-07-23T07:47:25;13.90;;;8.07;;
39788;SDS011;25478;42.626;23.320;2022-07-23T07:49:50;15.20;;;8.13;;
39788;SDS011;25478;42.626;23.320;2022-07-23T07:52:16;13.15;;;7.55;;
39788;SDS011;25478;42.626;23.320;2022-07-23T07:54:41;9.43;;;7.05;;
39788;SDS011;25478;42.626;23.320;2022-07-23T07:57:08;12.95;;;7.32;;
39788;SDS011;25478;42.626;23.320;2022-07-23T07:59:33;11.43;;;7.75;;
39788;SDS011;25478;42.626;23.320;2022-07-23T08:01:59;12.77;;;7.85;;
39788;SDS011;25478;42.626;23.320;2022-07-23T08:04:25;20.27;;;8.00;;
39788;SDS011;25478;42.626;23.320;2022-07-23T08:06:50;12.98;;;7.88;;
39788;SDS011;25478;42.626;23.320;2022-07-23T08:09:16;17.17;;;8.13;;
39788;SDS011;25478;42.626;23.320;2022-07-23T08:11:41;12.50;;;7.90;;
39788;SDS011;25478;42.626;23.320;2022-07-23T08:14:07;15.05;;;8.23;;
39788;SDS011;25478;42.626;23.320;2022-07-23T08:16:32;14.18;;;8.23;;
39788;SDS011;25478;42.626;23.320;2022-07-23T08:18:58;11.52;;;7.18;;
39788;SDS011;25478;42.626;23.320;2022-07-23T08:21:23;14.60;;;7.90;;
39788;SDS011;25478;42.626;23.320;2022-07-23T08:23:49;13.10;;;7.85;;
39788;SDS011;25478;42.626;23.320;2022-07-23T08:26:14;16.38;;;8.13;;
39788;SDS011;25478;42.626;23.320;2022-07-23T08:28:40;16.10;;;8.25;;
39788;SDS011;25478;42.626;23.320;2022-07-23T08:31:05;11.90;;;7.45;;
39788;SDS011;25478;42.626;23.320;2022-07-23T08:33:31;14.05;;;7.50;;
39788;SDS011;25478;42.626;23.320;2022-07-23T08:35:56;13.35;;;8.07;;
39788;SDS011;25478;42.626;23.320;2022-07-23T08:38:23;12.15;;;8.20;;
39788;SDS011;25478;42.626;23.320;2022-07-23T08:40:53;14.13;;;8.32;;
39788;SDS011;25478;42.626;23.320;2022-07-23T08:43:22;18.30;;;8.38;;
39788;SDS011;25478;42.626;23.320;2022-07-23T08:45:56;15.65;;;8.30;;
39788;SDS011;25478;42.626;23.320;2022-07-23T08:48:24;14.38;;;7.45;;
39788;SDS011;25478;42.626;23.320;2022-07-23T08:50:52;12.98;;;8.05;;
39788;SDS011;25478;42.626;23.320;2022-07-23T08:53:20;12.80;;;7.75;;
39788;SDS011;25478;42.626;23.320;2022-07-23T08:55:47;14.13;;;7.68;;
39788;SDS011;25478;42.626;23.320;2022-07-23T08:58:14;10.68;;;7.55;;
39788;SDS011;25478;42.626;23.320;2022-07-23T09:00:40;13.07;;;7.90;;
39788;SDS011;25478;42.626;23.320;2022-07-23T09:03:06;13.77;;;7.55;;
39788;SDS011;25478;42.626;23.320;2022-07-23T09:05:31;12.90;;;7.38;;
39788;SDS011;25478;42.626;23.320;2022-07-23T09:10:28;12.68;;;7.85;;
39788;SDS011;25478;42.626;23.320;2022-07-23T09:12:54;13.95;;;7.75;;
39788;SDS011;25478;42.626;23.320;2022-07-23T09:15:20;12.07;;;7.32;;
39788;SDS011;25478;42.626;23.320;2022-07-23T09:17:45;12.40;;;7.40;;
39788;SDS011;25478;42.626;23.320;2022-07-23T09:20:12;12.13;;;7.75;;
39788;SDS011;25478;42.626;23.320;2022-07-23T09:22:47;13.23;;;7.40;;
39788;SDS011;25478;42.626;23.320;2022-07-23T09:25:15;10.23;;;7.50;;
39788;SDS011;25478;42.626;23.320;2022-07-23T09:27:59;11.57;;;6.90;;
39788;SDS011;25478;42.626;23.320;2022-07-23T09:30:30;10.88;;;7.40;;
39788;SDS011;25478;42.626;23.320;2022-07-23T09:33:06;14.43;;;7.40;;
39788;SDS011;25478;42.626;23.320;2022-07-23T09:35:48;8.98;;;6.82;;
39788;SDS011;25478;42.626;23.320;2022-07-23T09:38:22;10.68;;;7.15;;
39788;SDS011;25478;42.626;23.320;2022-07-23T09:41:05;9.73;;;7.13;;
39788;SDS011;25478;42.626;23.320;2022-07-23T09:43:34;12.43;;;7.35;;
39788;SDS011;25478;42.626;23.320;2022-07-23T09:48:54;12.60;;;6.57;;
39788;SDS011;25478;42.626;23.320;2022-07-23T09:51:22;13.10;;;6.03;;
39788;SDS011;25478;42.626;23.320;2022-07-23T09:54:01;10.05;;;6.13;;
39788;SDS011;25478;42.626;23.320;2022-07-23T09:56:27;10.75;;;6.07;;
39788;SDS011;25478;42.626;23.320;2022-07-23T09:58:53;10.15;;;6.72;;
39788;SDS011;25478;42.626;23.320;2022-07-23T10:01:39;9.50;;;6.90;;
39788;SDS011;25478;42.626;23.320;2022-07-23T10:04:05;8.65;;;6.45;;
39788;SDS011;25478;42.626;23.320;2022-07-23T10:07:10;9.90;;;6.00;;
39788;SDS011;25478;42.626;23.320;2022-07-23T10:09:55;10.25;;;6.25;;
39788;SDS011;25478;42.626;23.320;2022-07-23T10:12:55;11.93;;;6.25;;
39788;SDS011;25478;42.626;23.320;2022-07-23T10:15:40;9.80;;;6.38;;
39788;SDS011;25478;42.626;23.320;2022-07-23T10:18:07;11.70;;;6.63;;
39788;SDS011;25478;42.626;23.320;2022-07-23T10:20:36;10.13;;;5.88;;
39788;SDS011;25478;42.626;23.320;2022-07-23T10:23:04;8.75;;;6.20;;
39788;SDS011;25478;42.626;23.320;2022-07-23T10:28:32;11.13;;;6.05;;
39788;SDS011;25478;42.626;23.320;2022-07-23T10:31:26;8.23;;;5.75;;
39788;SDS011;25478;42.626;23.320;2022-07-23T10:34:07;11.23;;;5.65;;
39788;SDS011;25478;42.626;23.320;2022-07-23T10:36:41;9.63;;;5.60;;
39788;SDS011;25478;42.626;23.320;2022-07-23T10:39:17;10.75;;;6.13;;
39788;SDS011;25478;42.626;23.320;2022-07-23T10:41:47;8.48;;;5.32;;
39788;SDS011;25478;42.626;23.320;2022-07-23T10:44:14;13.88;;;6.32;;
39788;SDS011;25478;42.626;23.320;2022-07-23T10:47:02;12.38;;;5.90;;
39788;SDS011;25478;42.626;23.320;2022-07-23T10:49:47;9.15;;;5.63;;
39788;SDS011;25478;42.626;23.320;2022-07-23T10:52:16;10.02;;;6.10;;
39788;SDS011;25478;42.626;23.320;2022-07-23T10:54:43;9.73;;;5.75;;
39788;SDS011;25478;42.626;23.320;2022-07-23T10:57:09;13.65;;;5.95;;
39788;SDS011;25478;42.626;23.320;2022-07-23T11:02:48;11.75;;;5.40;;
39788;SDS011;25478;42.626;23.320;2022-07-23T11:05:16;10.38;;;5.32;;
39788;SDS011;25478;42.626;23.320;2022-07-23T11:10:34;9.50;;;5.20;;
39788;SDS011;25478;42.626;23.320;2022-07-23T11:21:50;12.15;;;6.03;;
39788;SDS011;25478;42.626;23.320;2022-07-23T11:24:06;10.57;;;5.93;;
39788;SDS011;25478;42.626;23.320;2022-07-23T11:26:42;13.03;;;6.00;;
39788;SDS011;25478;42.626;23.320;2022-07-23T11:34:39;13.77;;;5.78;;
39788;SDS011;25478;42.626;23.320;2022-07-23T11:37:09;10.75;;;5.45;;
39788;SDS011;25478;42.626;23.320;2022-07-23T11:39:36;10.90;;;5.50;;
39788;SDS011;25478;42.626;23.320;2022-07-23T11:42:03;9.52;;;5.93;;
39788;SDS011;25478;42.626;23.320;2022-07-23T11:44:37;11.68;;;5.50;;
39788;SDS011;25478;42.626;23.320;2022-07-23T11:47:05;14.57;;;6.05;;
39788;SDS011;25478;42.626;23.320;2022-07-23T11:49:31;10.77;;;5.57;;
39788;SDS011;25478;42.626;23.320;2022-07-23T11:52:11;13.77;;;5.78;;
39788;SDS011;25478;42.626;23.320;2022-07-23T11:54:57;10.82;;;5.50;;
39788;SDS011;25478;42.626;23.320;2022-07-23T11:57:29;12.40;;;5.15;;
39788;SDS011;25478;42.626;23.320;2022-07-23T11:59:57;13.32;;;5.63;;
39788;SDS011;25478;42.626;23.320;2022-07-23T12:02:41;9.65;;;4.68;;
39788;SDS011;25478;42.626;23.320;2022-07-23T12:05:15;12.52;;;5.72;;
39788;SDS011;25478;42.626;23.320;2022-07-23T12:07:43;11.77;;;5.22;;
39788;SDS011;25478;42.626;23.320;2022-07-23T12:10:29;12.95;;;5.28;;
39788;SDS011;25478;42.626;23.320;2022-07-23T12:13:15;11.27;;;5.20;;
39788;SDS011;25478;42.626;23.320;2022-07-23T12:15:49;11.85;;;4.47;;
39788;SDS011;25478;42.626;23.320;2022-07-23T12:18:19;13.38;;;5.10;;
39788;SDS011;25478;42.626;23.320;2022-07-23T12:20:48;11.23;;;4.40;;
39788;SDS011;25478;42.626;23.320;2022-07-23T12:23:18;11.63;;;4.60;;
39788;SDS011;25478;42.626;23.320;2022-07-23T12:25:46;13.27;;;4.75;;
39788;SDS011;25478;42.626;23.320;2022-07-23T12:28:13;12.55;;;5.20;;
39788;SDS011;25478;42.626;23.320;2022-07-23T12:33:11;13.02;;;5.10;;
39788;SDS011;25478;42.626;23.320;2022-07-23T12:35:44;13.07;;;5.68;;
39788;SDS011;25478;42.626;23.320;2022-07-23T12:38:12;10.23;;;4.78;;
39788;SDS011;25478;42.626;23.320;2022-07-23T12:40:46;11.63;;;5.05;;
39788;SDS011;25478;42.626;23.320;2022-07-23T12:45:53;11.60;;;5.32;;
39788;SDS011;25478;42.626;23.320;2022-07-23T12:51:03;11.52;;;4.95;;
39788;SDS011;25478;42.626;23.320;2022-07-23T12:53:30;13.73;;;5.00;;
39788;SDS011;25478;42.626;23.320;2022-07-23T12:58:43;13.20;;;4.85;;
39788;SDS011;25478;42.626;23.320;2022-07-23T13:06:49;8.10;;;4.30;;
39788;SDS011;25478;42.626;23.320;2022-07-23T13:09:24;11.55;;;4.40;;
39788;SDS011;25478;42.626;23.320;2022-07-23T13:11:52;11.30;;;4.25;;
39788;SDS011;25478;42.626;23.320;2022-07-23T13:14:19;14.00;;;4.60;;
39788;SDS011;25478;42.626;23.320;2022-07-23T13:16:46;11.90;;;4.85;;
39788;SDS011;25478;42.626;23.320;2022-07-23T13:19:12;9.88;;;3.80;;
39788;SDS011;25478;42.626;23.320;2022-07-23T13:21:38;11.40;;;4.45;;
39788;SDS011;25478;42.626;23.320;2022-07-23T13:24:05;12.18;;;4.40;;
39788;SDS011;25478;42.626;23.320;2022-07-23T13:26:32;10.82;;;4.10;;
39788;SDS011;25478;42.626;23.320;2022-07-23T13:28:57;11.25;;;4.60;;
39788;SDS011;25478;42.626;23.320;2022-07-23T13:31:23;13.27;;;4.95;;
39788;SDS011;25478;42.626;23.320;2022-07-23T13:33:49;7.88;;;4.50;;
39788;SDS011;25478;42.626;23.320;2022-07-23T13:36:14;14.50;;;5.30;;
39788;SDS011;25478;42.626;23.320;2022-07-23T13:38:40;10.75;;;4.60;;
39788;SDS011;25478;42.626;23.320;2022-07-23T13:41:06;9.15;;;4.72;;
39788;SDS011;25478;42.626;23.320;2022-07-23T13:43:32;9.68;;;4.20;;
39788;SDS011;25478;42.626;23.320;2022-07-23T13:45:57;14.50;;;5.43;;
39788;SDS011;25478;42.626;23.320;2022-07-23T13:48:23;10.45;;;4.53;;
39788;SDS011;25478;42.626;23.320;2022-07-23T13:50:49;11.10;;;4.45;;
39788;SDS011;25478;42.626;23.320;2022-07-23T13:53:17;11.18;;;4.38;;
39788;SDS011;25478;42.626;23.320;2022-07-23T13:55:44;12.80;;;5.03;;
39788;SDS011;25478;42.626;23.320;2022-07-23T13:58:10;11.73;;;5.18;;
39788;SDS011;25478;42.626;23.320;2022-07-23T14:00:38;12.70;;;4.43;;
39788;SDS011;25478;42.626;23.320;2022-07-23T14:03:05;11.82;;;4.82;;
39788;SDS011;25478;42.626;23.320;2022-07-23T14:05:31;10.75;;;4.55;;
39788;SDS011;25478;42.626;23.320;2022-07-23T14:07:57;11.77;;;4.85;;
39788;SDS011;25478;42.626;23.320;2022-07-23T14:10:22;8.85;;;4.78;;
39788;SDS011;25478;42.626;23.320;2022-07-23T14:12:49;10.88;;;4.63;;
39788;SDS011;25478;42.626;23.320;2022-07-23T14:15:16;14.02;;;4.53;;
39788;SDS011;25478;42.626;23.320;2022-07-23T14:17:43;11.27;;;4.78;;
39788;SDS011;25478;42.626;23.320;2022-07-23T14:20:10;12.38;;;4.70;;
39788;SDS011;25478;42.626;23.320;2022-07-23T14:22:37;15.00;;;5.35;;
39788;SDS011;25478;42.626;23.320;2022-07-23T14:25:03;9.70;;;4.53;;
39788;SDS011;25478;42.626;23.320;2022-07-23T14:27:30;15.10;;;5.25;;
39788;SDS011;25478;42.626;23.320;2022-07-23T14:29:56;9.82;;;4.72;;
39788;SDS011;25478;42.626;23.320;2022-07-23T14:32:22;8.70;;;4.40;;
39788;SDS011;25478;42.626;23.320;2022-07-23T14:34:48;10.35;;;4.90;;
39788;SDS011;25478;42.626;23.320;2022-07-23T14:37:14;10.00;;;4.53;;
39788;SDS011;25478;42.626;23.320;2022-07-23T14:39:41;11.77;;;5.38;;
39788;SDS011;25478;42.626;23.320;2022-07-23T14:42:08;10.93;;;4.70;;
39788;SDS011;25478;42.626;23.320;2022-07-23T14:44:34;11.73;;;4.45;;
39788;SDS011;25478;42.626;23.320;2022-07-23T14:47:00;8.82;;;4.18;;
39788;SDS011;25478;42.626;23.320;2022-07-23T14:49:26;9.52;;;4.38;;
39788;SDS011;25478;42.626;23.320;2022-07-23T14:51:52;8.75;;;4.85;;
39788;SDS011;25478;42.626;23.320;2022-07-23T14:54:18;11.27;;;5.35;;
39788;SDS011;25478;42.626;23.320;2022-07-23T14:56:44;8.90;;;4.30;;
39788;SDS011;25478;42.626;23.320;2022-07-23T14:59:11;12.77;;;4.88;;
39788;SDS011;25478;42.626;23.320;2022-07-23T15:01:36;11.13;;;4.95;;
39788;SDS011;25478;42.626;23.320;2022-07-23T15:04:02;13.68;;;4.55;;
39788;SDS011;25478;42.626;23.320;2022-07-23T15:06:29;12.25;;;6.15;;
39788;SDS011;25478;42.626;23.320;2022-07-23T15:08:54;9.90;;;5.03;;
39788;SDS011;25478;42.626;23.320;2022-07-23T15:11:20;11.02;;;4.93;;
39788;SDS011;25478;42.626;23.320;2022-07-23T15:13:45;8.30;;;4.80;;
39788;SDS011;25478;42.626;23.320;2022-07-23T15:16:11;11.38;;;5.00;;
39788;SDS011;25478;42.626;23.320;2022-07-23T15:18:37;16.42;;;4.70;;